sensor_id;sensor_type;location;lat;lon;timestamp;P1;durP1;ratioP1;P2;durP2;ratioP2
11255;SDS011;5685;52.384;13.420;2022-08-27T00:02:18;18.70;;;16.93;;
11255;SDS011;5685;52.384;13.420;2022-08-27T00:05:21;21.37;;;16.63;;
11255;SDS011;5685;52.384;13.420;2022-08-27T00:08:23;18.17;;;16.80;;
11255;SDS011;5685;52.384;13.420;2022-08-27T00:11:25;18.50;;;16.90;;
11255;SDS011;5685;52.384;13.420;2022-08-27T00:14:29;18.67;;;17.23;;
11255;SDS011;5685;52.384;13.420;2022-08-27T00:17:32;18.77;;;16.93;;
11255;SDS011;5685;52.384;13.420;2022-08-27T00:20:35;17.63;;;16.03;;
11255;SDS011;5685;52.384;13.420;2022-08-27T00:23:37;17.63;;;16.33;;
11255;SDS011;5685;52.384;13.420;2022-08-27T00:26:40;18.73;;;17.17;;
11255;SDS011;5685;52.384;13.420;2022-08-27T00:29:45;18.27;;;16.77;;
11255;SDS011;5685;52.384;13.420;2022-08-27T00:32:48;18.40;;;16.70;;
11255;SDS011;5685;52.384;13.420;2022-08-27T00:35:50;18.17;;;16.57;;
11255;SDS011;5685;52.384;13.420;2022-08-27T00:38:53;18.17;;;16.43;;
11255;SDS011;5685;52.384;13.420;2022-08-27T00:41:55;18.43;;;16.57;;
11255;SDS011;5685;52.384;13.420;2022-08-27T00:45:01;17.30;;;15.90;;
11255;SDS011;5685;52.384;13.420;2022-08-27T00:48:05;19.07;;;17.53;;
11255;SDS011;5685;52.384;13.420;2022-08-27T00:51:11;17.50;;;15.93;;
11255;SDS011;5685;52.384;13.420;2022-08-27T00:54:13;18.30;;;16.77;;
11255;SDS011;5685;52.384;13.420;2022-08-27T00:57:16;16.90;;;15.70;;
11255;SDS011;5685;52.384;13.420;2022-08-27T01:00:21;18.03;;;16.57;;
11255;SDS011;5685;52.384;13.420;2022-08-27T01:03:24;16.90;;;15.60;;
11255;SDS011;5685;52.384;13.420;2022-08-27T01:06:33;18.93;;;17.23;;
11255;SDS011;5685;52.384;13.420;2022-08-27T01:09:37;18.53;;;16.70;;
11255;SDS011;5685;52.384;13.420;2022-08-27T01:12:39;18.47;;;16.70;;
11255;SDS011;5685;52.384;13.420;2022-08-27T01:15:44;18.97;;;17.47;;
11255;SDS011;5685;52.384;13.420;2022-08-27T01:18:48;18.53;;;16.77;;
11255;SDS011;5685;52.384;13.420;2022-08-27T01:21:52;19.10;;;17.13;;
11255;SDS011;5685;52.384;13.420;2022-08-27T01:25:03;19.80;;;18.00;;
11255;SDS011;5685;52.384;13.420;2022-08-27T01:28:09;18.63;;;17.03;;
11255;SDS011;5685;52.384;13.420;2022-08-27T01:31:12;17.77;;;16.03;;
11255;SDS011;5685;52.384;13.420;2022-08-27T01:34:14;18.60;;;17.07;;
11255;SDS011;5685;52.384;13.420;2022-08-27T01:37:17;18.93;;;17.40;;
11255;SDS011;5685;52.384;13.420;2022-08-27T01:40:22;19.20;;;17.37;;
11255;SDS011;5685;52.384;13.420;2022-08-27T01:43:25;18.33;;;16.67;;
11255;SDS011;5685;52.384;13.420;2022-08-27T01:46:27;19.37;;;17.73;;
11255;SDS011;5685;52.384;13.420;2022-08-27T01:49:30;19.93;;;17.90;;
11255;SDS011;5685;52.384;13.420;2022-08-27T01:52:32;19.03;;;17.53;;
11255;SDS011;5685;52.384;13.420;2022-08-27T01:55:36;18.47;;;16.83;;
11255;SDS011;5685;52.384;13.420;2022-08-27T01:58:39;19.53;;;17.80;;
11255;SDS011;5685;52.384;13.420;2022-08-27T02:01:42;19.90;;;17.90;;
11255;SDS011;5685;52.384;13.420;2022-08-27T02:04:45;19.23;;;17.53;;
11255;SDS011;5685;52.384;13.420;2022-08-27T02:07:47;17.80;;;16.47;;
11255;SDS011;5685;52.384;13.420;2022-08-27T02:10:51;19.40;;;17.57;;
11255;SDS011;5685;52.384;13.420;2022-08-27T02:13:53;18.07;;;16.47;;
11255;SDS011;5685;52.384;13.420;2022-08-27T02:16:55;19.07;;;17.30;;
11255;SDS011;5685;52.384;13.420;2022-08-27T02:19:58;17.77;;;16.13;;
11255;SDS011;5685;52.384;13.420;2022-08-27T02:23:01;18.13;;;16.63;;
11255;SDS011;5685;52.384;13.420;2022-08-27T02:26:06;20.17;;;18.27;;
11255;SDS011;5685;52.384;13.420;2022-08-27T02:29:09;19.40;;;17.57;;
11255;SDS011;5685;52.384;13.420;2022-08-27T02:32:11;18.00;;;16.50;;
11255;SDS011;5685;52.384;13.420;2022-08-27T02:35:14;16.93;;;15.63;;
11255;SDS011;5685;52.384;13.420;2022-08-27T02:38:18;16.83;;;15.47;;
11255;SDS011;5685;52.384;13.420;2022-08-27T02:41:22;17.93;;;16.53;;
11255;SDS011;5685;52.384;13.420;2022-08-27T02:44:24;17.77;;;16.10;;
11255;SDS011;5685;52.384;13.420;2022-08-27T02:47:27;18.30;;;16.67;;
11255;SDS011;5685;52.384;13.420;2022-08-27T02:50:29;18.40;;;16.80;;
11255;SDS011;5685;52.384;13.420;2022-08-27T02:53:32;20.50;;;18.57;;
11255;SDS011;5685;52.384;13.420;2022-08-27T02:56:37;19.43;;;17.50;;
11255;SDS011;5685;52.384;13.420;2022-08-27T02:59:39;20.53;;;18.77;;
11255;SDS011;5685;52.384;13.420;2022-08-27T03:02:42;21.20;;;19.20;;
11255;SDS011;5685;52.384;13.420;2022-08-27T03:05:44;20.27;;;18.67;;
11255;SDS011;5685;52.384;13.420;2022-08-27T03:08:47;20.80;;;18.93;;
11255;SDS011;5685;52.384;13.420;2022-08-27T03:11:51;21.53;;;19.63;;
11255;SDS011;5685;52.384;13.420;2022-08-27T03:14:54;21.60;;;19.37;;
11255;SDS011;5685;52.384;13.420;2022-08-27T03:17:56;21.63;;;19.73;;
11255;SDS011;5685;52.384;13.420;2022-08-27T03:21:16;21.90;;;19.17;;
11255;SDS011;5685;52.384;13.420;2022-08-27T03:24:20;22.87;;;20.50;;
11255;SDS011;5685;52.384;13.420;2022-08-27T03:27:24;21.97;;;19.80;;
11255;SDS011;5685;52.384;13.420;2022-08-27T03:30:27;22.27;;;20.23;;
11255;SDS011;5685;52.384;13.420;2022-08-27T03:33:30;21.83;;;19.63;;
11255;SDS011;5685;52.384;13.420;2022-08-27T03:36:33;25.60;;;19.80;;
11255;SDS011;5685;52.384;13.420;2022-08-27T03:39:36;23.10;;;20.57;;
11255;SDS011;5685;52.384;13.420;2022-08-27T03:42:40;23.20;;;20.80;;
11255;SDS011;5685;52.384;13.420;2022-08-27T03:45:42;22.33;;;20.03;;
11255;SDS011;5685;52.384;13.420;2022-08-27T03:48:46;24.67;;;22.13;;
11255;SDS011;5685;52.384;13.420;2022-08-27T03:51:48;24.70;;;21.43;;
11255;SDS011;5685;52.384;13.420;2022-08-27T03:54:51;27.60;;;20.43;;
11255;SDS011;5685;52.384;13.420;2022-08-27T03:57:55;23.00;;;20.70;;
11255;SDS011;5685;52.384;13.420;2022-08-27T04:00:57;23.17;;;20.23;;
11255;SDS011;5685;52.384;13.420;2022-08-27T04:04:00;22.20;;;19.80;;
11255;SDS011;5685;52.384;13.420;2022-08-27T04:07:03;23.57;;;18.07;;
11255;SDS011;5685;52.384;13.420;2022-08-27T04:10:06;17.60;;;16.20;;
11255;SDS011;5685;52.384;13.420;2022-08-27T04:16:13;17.33;;;15.80;;
11255;SDS011;5685;52.384;13.420;2022-08-27T04:19:15;17.77;;;15.93;;
11255;SDS011;5685;52.384;13.420;2022-08-27T04:22:17;17.00;;;15.70;;
11255;SDS011;5685;52.384;13.420;2022-08-27T04:25:20;16.00;;;14.80;;
11255;SDS011;5685;52.384;13.420;2022-08-27T04:28:23;16.03;;;14.63;;
11255;SDS011;5685;52.384;13.420;2022-08-27T04:31:26;16.37;;;15.07;;
11255;SDS011;5685;52.384;13.420;2022-08-27T04:34:28;16.47;;;15.03;;
11255;SDS011;5685;52.384;13.420;2022-08-27T04:37:31;16.07;;;14.80;;
11255;SDS011;5685;52.384;13.420;2022-08-27T04:40:35;15.93;;;14.53;;
11255;SDS011;5685;52.384;13.420;2022-08-27T04:43:56;16.00;;;14.80;;
11255;SDS011;5685;52.384;13.420;2022-08-27T04:47:04;16.00;;;14.90;;
11255;SDS011;5685;52.384;13.420;2022-08-27T04:50:07;15.70;;;14.60;;
11255;SDS011;5685;52.384;13.420;2022-08-27T04:53:09;16.00;;;14.67;;
11255;SDS011;5685;52.384;13.420;2022-08-27T04:56:14;15.10;;;14.10;;
11255;SDS011;5685;52.384;13.420;2022-08-27T04:59:17;14.63;;;13.63;;
11255;SDS011;5685;52.384;13.420;2022-08-27T05:02:21;14.57;;;13.67;;
11255;SDS011;5685;52.384;13.420;2022-08-27T05:05:25;15.03;;;13.83;;
11255;SDS011;5685;52.384;13.420;2022-08-27T05:08:28;14.07;;;13.07;;
11255;SDS011;5685;52.384;13.420;2022-08-27T05:11:32;15.03;;;14.03;;
11255;SDS011;5685;52.384;13.420;2022-08-27T05:14:34;14.07;;;13.17;;
11255;SDS011;5685;52.384;13.420;2022-08-27T05:17:39;14.73;;;13.53;;
11255;SDS011;5685;52.384;13.420;2022-08-27T05:20:42;14.80;;;13.70;;
11255;SDS011;5685;52.384;13.420;2022-08-27T05:23:48;15.50;;;14.40;;
11255;SDS011;5685;52.384;13.420;2022-08-27T05:26:51;14.80;;;13.60;;
11255;SDS011;5685;52.384;13.420;2022-08-27T05:29:53;15.47;;;14.17;;
11255;SDS011;5685;52.384;13.420;2022-08-27T05:32:57;15.03;;;13.83;;
11255;SDS011;5685;52.384;13.420;2022-08-27T05:35:59;15.53;;;14.33;;
11255;SDS011;5685;52.384;13.420;2022-08-27T05:39:03;14.33;;;13.40;;
11255;SDS011;5685;52.384;13.420;2022-08-27T05:42:06;14.40;;;13.40;;
11255;SDS011;5685;52.384;13.420;2022-08-27T05:45:08;14.40;;;13.50;;
11255;SDS011;5685;52.384;13.420;2022-08-27T05:48:13;15.47;;;14.37;;
11255;SDS011;5685;52.384;13.420;2022-08-27T05:51:17;15.47;;;14.33;;
11255;SDS011;5685;52.384;13.420;2022-08-27T05:54:21;15.10;;;13.97;;
11255;SDS011;5685;52.384;13.420;2022-08-27T05:57:23;15.37;;;14.37;;
11255;SDS011;5685;52.384;13.420;2022-08-27T06:00:25;15.50;;;14.20;;
11255;SDS011;5685;52.384;13.420;2022-08-27T06:03:46;16.63;;;15.23;;
11255;SDS011;5685;52.384;13.420;2022-08-27T06:06:49;15.90;;;14.83;;
11255;SDS011;5685;52.384;13.420;2022-08-27T06:09:52;16.03;;;14.73;;
11255;SDS011;5685;52.384;13.420;2022-08-27T06:12:55;16.67;;;15.17;;
11255;SDS011;5685;52.384;13.420;2022-08-27T06:15:59;15.50;;;14.33;;
11255;SDS011;5685;52.384;13.420;2022-08-27T06:19:04;16.13;;;14.93;;
11255;SDS011;5685;52.384;13.420;2022-08-27T06:22:07;17.13;;;15.73;;
11255;SDS011;5685;52.384;13.420;2022-08-27T06:25:10;15.60;;;14.30;;
11255;SDS011;5685;52.384;13.420;2022-08-27T06:28:12;15.70;;;14.60;;
11255;SDS011;5685;52.384;13.420;2022-08-27T06:31:15;15.70;;;14.70;;
11255;SDS011;5685;52.384;13.420;2022-08-27T06:34:21;15.50;;;14.40;;
11255;SDS011;5685;52.384;13.420;2022-08-27T06:37:23;15.43;;;14.33;;
11255;SDS011;5685;52.384;13.420;2022-08-27T06:40:26;15.07;;;13.77;;
11255;SDS011;5685;52.384;13.420;2022-08-27T06:43:28;15.63;;;14.43;;
11255;SDS011;5685;52.384;13.420;2022-08-27T06:46:30;16.20;;;15.00;;
11255;SDS011;5685;52.384;13.420;2022-08-27T06:49:34;14.83;;;13.90;;
11255;SDS011;5685;52.384;13.420;2022-08-27T06:52:39;14.90;;;13.77;;
11255;SDS011;5685;52.384;13.420;2022-08-27T06:55:42;14.87;;;13.93;;
11255;SDS011;5685;52.384;13.420;2022-08-27T06:58:46;14.07;;;13.17;;
11255;SDS011;5685;52.384;13.420;2022-08-27T07:01:48;13.43;;;12.53;;
11255;SDS011;5685;52.384;13.420;2022-08-27T07:04:53;14.23;;;13.33;;
11255;SDS011;5685;52.384;13.420;2022-08-27T07:07:55;13.93;;;13.03;;
11255;SDS011;5685;52.384;13.420;2022-08-27T07:10:57;13.83;;;12.87;;
11255;SDS011;5685;52.384;13.420;2022-08-27T07:14:00;14.77;;;13.77;;
11255;SDS011;5685;52.384;13.420;2022-08-27T07:17:05;15.50;;;14.40;;
11255;SDS011;5685;52.384;13.420;2022-08-27T07:20:10;13.90;;;13.00;;
11255;SDS011;5685;52.384;13.420;2022-08-27T07:23:12;14.27;;;13.23;;
11255;SDS011;5685;52.384;13.420;2022-08-27T07:26:15;14.57;;;13.47;;
11255;SDS011;5685;52.384;13.420;2022-08-27T07:29:18;13.60;;;12.70;;
11255;SDS011;5685;52.384;13.420;2022-08-27T07:32:20;14.10;;;13.10;;
11255;SDS011;5685;52.384;13.420;2022-08-27T07:35:24;14.63;;;13.43;;
11255;SDS011;5685;52.384;13.420;2022-08-27T07:38:26;13.43;;;12.47;;
11255;SDS011;5685;52.384;13.420;2022-08-27T07:41:29;13.93;;;12.93;;
11255;SDS011;5685;52.384;13.420;2022-08-27T07:44:52;14.63;;;13.63;;
11255;SDS011;5685;52.384;13.420;2022-08-27T07:47:53;14.47;;;13.50;;
11255;SDS011;5685;52.384;13.420;2022-08-27T07:50:57;14.13;;;13.13;;
11255;SDS011;5685;52.384;13.420;2022-08-27T07:54:02;13.77;;;12.87;;
11255;SDS011;5685;52.384;13.420;2022-08-27T07:57:04;14.77;;;13.67;;
11255;SDS011;5685;52.384;13.420;2022-08-27T08:00:08;14.17;;;13.07;;
11255;SDS011;5685;52.384;13.420;2022-08-27T08:03:11;15.10;;;14.10;;
11255;SDS011;5685;52.384;13.420;2022-08-27T08:06:15;14.50;;;13.50;;
11255;SDS011;5685;52.384;13.420;2022-08-27T08:09:18;14.80;;;13.80;;
11255;SDS011;5685;52.384;13.420;2022-08-27T08:12:22;14.27;;;13.17;;
11255;SDS011;5685;52.384;13.420;2022-08-27T08:15:25;13.73;;;12.53;;
11255;SDS011;5685;52.384;13.420;2022-08-27T08:18:27;14.80;;;13.70;;
11255;SDS011;5685;52.384;13.420;2022-08-27T08:21:30;14.43;;;13.33;;
11255;SDS011;5685;52.384;13.420;2022-08-27T08:24:34;14.53;;;13.43;;
11255;SDS011;5685;52.384;13.420;2022-08-27T08:27:36;13.50;;;12.60;;
11255;SDS011;5685;52.384;13.420;2022-08-27T08:30:40;14.23;;;13.23;;
11255;SDS011;5685;52.384;13.420;2022-08-27T08:33:43;14.93;;;13.87;;
11255;SDS011;5685;52.384;13.420;2022-08-27T08:36:49;14.40;;;13.40;;
11255;SDS011;5685;52.384;13.420;2022-08-27T08:39:51;14.00;;;13.00;;
11255;SDS011;5685;52.384;13.420;2022-08-27T08:42:54;14.67;;;13.50;;
11255;SDS011;5685;52.384;13.420;2022-08-27T08:45:58;14.83;;;13.83;;
11255;SDS011;5685;52.384;13.420;2022-08-27T08:49:11;14.57;;;13.43;;
11255;SDS011;5685;52.384;13.420;2022-08-27T08:52:40;17.37;;;15.83;;
11255;SDS011;5685;52.384;13.420;2022-08-27T08:55:51;17.63;;;16.13;;
11255;SDS011;5685;52.384;13.420;2022-08-27T08:58:58;17.77;;;15.97;;
11255;SDS011;5685;52.384;13.420;2022-08-27T09:02:05;17.30;;;15.90;;
11255;SDS011;5685;52.384;13.420;2022-08-27T09:05:10;19.47;;;17.57;;
11255;SDS011;5685;52.384;13.420;2022-08-27T09:08:15;17.23;;;15.83;;
11255;SDS011;5685;52.384;13.420;2022-08-27T09:11:24;17.03;;;15.63;;
11255;SDS011;5685;52.384;13.420;2022-08-27T09:14:36;19.23;;;17.53;;
11255;SDS011;5685;52.384;13.420;2022-08-27T09:17:43;20.00;;;17.97;;
11255;SDS011;5685;52.384;13.420;2022-08-27T09:20:49;18.87;;;17.00;;
11255;SDS011;5685;52.384;13.420;2022-08-27T09:24:06;19.30;;;17.33;;
11255;SDS011;5685;52.384;13.420;2022-08-27T09:27:15;20.17;;;18.10;;
11255;SDS011;5685;52.384;13.420;2022-08-27T09:30:18;20.53;;;18.57;;
11255;SDS011;5685;52.384;13.420;2022-08-27T09:33:23;20.37;;;18.30;;
11255;SDS011;5685;52.384;13.420;2022-08-27T09:36:26;21.70;;;19.37;;
11255;SDS011;5685;52.384;13.420;2022-08-27T09:39:31;20.90;;;18.70;;
11255;SDS011;5685;52.384;13.420;2022-08-27T09:42:39;20.27;;;18.33;;
11255;SDS011;5685;52.384;13.420;2022-08-27T09:45:45;20.17;;;18.17;;
11255;SDS011;5685;52.384;13.420;2022-08-27T09:48:50;20.77;;;17.90;;
11255;SDS011;5685;52.384;13.420;2022-08-27T09:51:53;19.77;;;17.53;;
11255;SDS011;5685;52.384;13.420;2022-08-27T09:54:58;19.83;;;18.13;;
11255;SDS011;5685;52.384;13.420;2022-08-27T09:58:02;19.20;;;17.50;;
11255;SDS011;5685;52.384;13.420;2022-08-27T10:01:15;19.23;;;17.43;;
11255;SDS011;5685;52.384;13.420;2022-08-27T10:04:23;19.70;;;17.90;;
11255;SDS011;5685;52.384;13.420;2022-08-27T10:07:38;21.07;;;18.93;;
11255;SDS011;5685;52.384;13.420;2022-08-27T10:10:54;20.93;;;19.03;;
11255;SDS011;5685;52.384;13.420;2022-08-27T10:14:00;20.00;;;17.97;;
11255;SDS011;5685;52.384;13.420;2022-08-27T10:17:14;19.37;;;17.40;;
11255;SDS011;5685;52.384;13.420;2022-08-27T10:20:27;25.03;;;19.90;;
11255;SDS011;5685;52.384;13.420;2022-08-27T10:23:43;19.40;;;17.77;;
11255;SDS011;5685;52.384;13.420;2022-08-27T10:26:54;19.73;;;17.87;;
11255;SDS011;5685;52.384;13.420;2022-08-27T10:30:12;19.40;;;17.63;;
11255;SDS011;5685;52.384;13.420;2022-08-27T10:33:18;19.40;;;17.60;;
11255;SDS011;5685;52.384;13.420;2022-08-27T10:36:29;20.27;;;18.27;;
11255;SDS011;5685;52.384;13.420;2022-08-27T10:39:50;18.83;;;16.97;;
11255;SDS011;5685;52.384;13.420;2022-08-27T10:43:11;18.90;;;16.97;;
11255;SDS011;5685;52.384;13.420;2022-08-27T10:46:41;18.77;;;17.27;;
11255;SDS011;5685;52.384;13.420;2022-08-27T10:49:59;19.27;;;17.30;;
11255;SDS011;5685;52.384;13.420;2022-08-27T10:53:08;17.87;;;16.27;;
11255;SDS011;5685;52.384;13.420;2022-08-27T10:56:24;17.53;;;16.13;;
11255;SDS011;5685;52.384;13.420;2022-08-27T10:59:36;17.03;;;15.63;;
11255;SDS011;5685;52.384;13.420;2022-08-27T11:02:46;17.37;;;15.97;;
11255;SDS011;5685;52.384;13.420;2022-08-27T11:05:53;15.47;;;14.27;;
11255;SDS011;5685;52.384;13.420;2022-08-27T11:08:57;16.80;;;15.30;;
11255;SDS011;5685;52.384;13.420;2022-08-27T11:12:05;16.37;;;14.80;;
11255;SDS011;5685;52.384;13.420;2022-08-27T11:15:12;16.43;;;15.17;;
11255;SDS011;5685;52.384;13.420;2022-08-27T11:18:21;15.20;;;14.10;;
11255;SDS011;5685;52.384;13.420;2022-08-27T11:24:41;16.53;;;15.33;;
11255;SDS011;5685;52.384;13.420;2022-08-27T11:27:52;16.20;;;14.73;;
11255;SDS011;5685;52.384;13.420;2022-08-27T11:30:59;16.90;;;15.50;;
11255;SDS011;5685;52.384;13.420;2022-08-27T11:34:08;15.90;;;14.60;;
11255;SDS011;5685;52.384;13.420;2022-08-27T11:37:32;16.73;;;15.13;;
11255;SDS011;5685;52.384;13.420;2022-08-27T11:40:53;17.03;;;15.50;;
11255;SDS011;5685;52.384;13.420;2022-08-27T11:44:11;15.77;;;14.67;;
11255;SDS011;5685;52.384;13.420;2022-08-27T11:47:18;16.43;;;15.13;;
11255;SDS011;5685;52.384;13.420;2022-08-27T11:50:22;17.33;;;16.03;;
11255;SDS011;5685;52.384;13.420;2022-08-27T11:53:27;15.43;;;14.30;;
11255;SDS011;5685;52.384;13.420;2022-08-27T11:56:34;15.70;;;14.50;;
11255;SDS011;5685;52.384;13.420;2022-08-27T11:59:40;15.97;;;14.37;;
11255;SDS011;5685;52.384;13.420;2022-08-27T12:02:49;16.17;;;14.90;;
11255;SDS011;5685;52.384;13.420;2022-08-27T12:09:26;17.37;;;15.90;;
11255;SDS011;5685;52.384;13.420;2022-08-27T12:12:31;16.63;;;15.17;;
11255;SDS011;5685;52.384;13.420;2022-08-27T12:15:48;17.17;;;15.67;;
11255;SDS011;5685;52.384;13.420;2022-08-27T12:19:15;17.47;;;16.00;;
11255;SDS011;5685;52.384;13.420;2022-08-27T12:22:36;16.83;;;15.33;;
11255;SDS011;5685;52.384;13.420;2022-08-27T12:26:13;16.10;;;14.93;;
11255;SDS011;5685;52.384;13.420;2022-08-27T12:29:32;15.93;;;14.73;;
11255;SDS011;5685;52.384;13.420;2022-08-27T12:32:40;16.37;;;15.03;;
11255;SDS011;5685;52.384;13.420;2022-08-27T12:35:47;16.43;;;15.23;;
11255;SDS011;5685;52.384;13.420;2022-08-27T12:38:53;16.73;;;15.43;;
11255;SDS011;5685;52.384;13.420;2022-08-27T12:41:58;16.60;;;15.33;;
11255;SDS011;5685;52.384;13.420;2022-08-27T12:45:00;16.37;;;15.20;;
11255;SDS011;5685;52.384;13.420;2022-08-27T12:48:07;16.63;;;15.33;;
11255;SDS011;5685;52.384;13.420;2022-08-27T12:51:13;16.60;;;15.30;;
11255;SDS011;5685;52.384;13.420;2022-08-27T12:54:23;15.07;;;14.03;;
11255;SDS011;5685;52.384;13.420;2022-08-27T12:57:37;16.20;;;14.90;;
11255;SDS011;5685;52.384;13.420;2022-08-27T13:00:51;15.83;;;14.73;;
11255;SDS011;5685;52.384;13.420;2022-08-27T13:04:14;16.50;;;15.10;;
11255;SDS011;5685;52.384;13.420;2022-08-27T13:07:26;16.60;;;15.40;;
11255;SDS011;5685;52.384;13.420;2022-08-27T13:10:32;16.20;;;14.80;;
11255;SDS011;5685;52.384;13.420;2022-08-27T13:13:34;15.97;;;14.83;;
11255;SDS011;5685;52.384;13.420;2022-08-27T13:16:37;15.83;;;14.53;;
11255;SDS011;5685;52.384;13.420;2022-08-27T13:19:45;16.13;;;14.93;;
11255;SDS011;5685;52.384;13.420;2022-08-27T13:22:53;15.40;;;14.40;;
11255;SDS011;5685;52.384;13.420;2022-08-27T13:26:01;16.70;;;15.20;;
11255;SDS011;5685;52.384;13.420;2022-08-27T13:29:06;16.50;;;15.20;;
11255;SDS011;5685;52.384;13.420;2022-08-27T13:32:09;17.03;;;15.63;;
11255;SDS011;5685;52.384;13.420;2022-08-27T13:35:14;16.63;;;15.43;;
11255;SDS011;5685;52.384;13.420;2022-08-27T13:38:19;17.43;;;15.90;;
11255;SDS011;5685;52.384;13.420;2022-08-27T13:41:29;16.40;;;15.20;;
11255;SDS011;5685;52.384;13.420;2022-08-27T13:44:34;16.93;;;15.50;;
11255;SDS011;5685;52.384;13.420;2022-08-27T13:47:42;17.60;;;16.00;;
11255;SDS011;5685;52.384;13.420;2022-08-27T13:50:48;17.97;;;16.33;;
11255;SDS011;5685;52.384;13.420;2022-08-27T13:53:54;16.20;;;15.00;;
11255;SDS011;5685;52.384;13.420;2022-08-27T13:57:22;18.60;;;16.80;;
11255;SDS011;5685;52.384;13.420;2022-08-27T14:00:30;17.17;;;15.80;;
11255;SDS011;5685;52.384;13.420;2022-08-27T14:03:35;18.00;;;16.40;;
11255;SDS011;5685;52.384;13.420;2022-08-27T14:06:48;18.40;;;16.60;;
11255;SDS011;5685;52.384;13.420;2022-08-27T14:09:52;17.83;;;16.10;;
11255;SDS011;5685;52.384;13.420;2022-08-27T14:12:58;17.80;;;16.30;;
11255;SDS011;5685;52.384;13.420;2022-08-27T14:16:11;16.97;;;15.67;;
11255;SDS011;5685;52.384;13.420;2022-08-27T14:19:23;16.43;;;15.17;;
11255;SDS011;5685;52.384;13.420;2022-08-27T14:22:27;17.47;;;16.20;;
11255;SDS011;5685;52.384;13.420;2022-08-27T14:25:31;17.10;;;15.37;;
11255;SDS011;5685;52.384;13.420;2022-08-27T14:28:34;17.03;;;15.10;;
11255;SDS011;5685;52.384;13.420;2022-08-27T14:31:36;17.07;;;15.77;;
11255;SDS011;5685;52.384;13.420;2022-08-27T14:34:39;15.73;;;14.27;;
11255;SDS011;5685;52.384;13.420;2022-08-27T14:37:41;17.17;;;15.80;;
11255;SDS011;5685;52.384;13.420;2022-08-27T14:40:47;16.53;;;15.27;;
11255;SDS011;5685;52.384;13.420;2022-08-27T14:43:51;15.83;;;14.53;;
11255;SDS011;5685;52.384;13.420;2022-08-27T14:46:54;16.23;;;14.87;;
11255;SDS011;5685;52.384;13.420;2022-08-27T14:49:57;16.50;;;15.10;;
11255;SDS011;5685;52.384;13.420;2022-08-27T14:52:59;16.23;;;15.00;;
11255;SDS011;5685;52.384;13.420;2022-08-27T14:56:03;16.37;;;15.00;;
11255;SDS011;5685;52.384;13.420;2022-08-27T14:59:05;15.30;;;14.30;;
11255;SDS011;5685;52.384;13.420;2022-08-27T15:02:09;15.03;;;13.93;;
11255;SDS011;5685;52.384;13.420;2022-08-27T15:05:14;16.00;;;14.80;;
11255;SDS011;5685;52.384;13.420;2022-08-27T15:08:16;16.07;;;14.70;;
11255;SDS011;5685;52.384;13.420;2022-08-27T15:11:21;15.43;;;14.30;;
11255;SDS011;5685;52.384;13.420;2022-08-27T15:14:26;15.60;;;14.20;;
11255;SDS011;5685;52.384;13.420;2022-08-27T15:17:31;16.13;;;14.90;;
11255;SDS011;5685;52.384;13.420;2022-08-27T15:20:34;14.90;;;13.80;;
11255;SDS011;5685;52.384;13.420;2022-08-27T15:23:36;16.43;;;15.10;;
11255;SDS011;5685;52.384;13.420;2022-08-27T15:26:40;16.97;;;15.67;;
11255;SDS011;5685;52.384;13.420;2022-08-27T15:29:43;15.00;;;13.93;;
11255;SDS011;5685;52.384;13.420;2022-08-27T15:32:46;16.27;;;15.03;;
11255;SDS011;5685;52.384;13.420;2022-08-27T15:35:49;17.13;;;15.47;;
11255;SDS011;5685;52.384;13.420;2022-08-27T15:38:51;15.97;;;14.57;;
11255;SDS011;5685;52.384;13.420;2022-08-27T15:41:56;15.93;;;14.83;;
11255;SDS011;5685;52.384;13.420;2022-08-27T15:44:59;16.80;;;15.37;;
11255;SDS011;5685;52.384;13.420;2022-08-27T15:48:01;16.53;;;15.23;;
11255;SDS011;5685;52.384;13.420;2022-08-27T15:51:05;16.57;;;15.27;;
11255;SDS011;5685;52.384;13.420;2022-08-27T15:54:10;16.57;;;15.27;;
11255;SDS011;5685;52.384;13.420;2022-08-27T15:57:14;16.67;;;15.00;;
11255;SDS011;5685;52.384;13.420;2022-08-27T16:00:17;16.37;;;15.17;;
11255;SDS011;5685;52.384;13.420;2022-08-27T16:03:20;17.67;;;16.37;;
11255;SDS011;5685;52.384;13.420;2022-08-27T16:06:23;16.50;;;15.03;;
11255;SDS011;5685;52.384;13.420;2022-08-27T16:09:26;16.17;;;14.90;;
11255;SDS011;5685;52.384;13.420;2022-08-27T16:12:29;17.17;;;15.67;;
11255;SDS011;5685;52.384;13.420;2022-08-27T16:15:32;18.10;;;15.13;;
11255;SDS011;5685;52.384;13.420;2022-08-27T16:18:39;16.43;;;15.13;;
11255;SDS011;5685;52.384;13.420;2022-08-27T16:21:43;16.50;;;15.10;;
11255;SDS011;5685;52.384;13.420;2022-08-27T16:24:45;17.37;;;15.77;;
11255;SDS011;5685;52.384;13.420;2022-08-27T16:27:49;15.40;;;14.23;;
11255;SDS011;5685;52.384;13.420;2022-08-27T16:30:52;15.97;;;14.70;;
11255;SDS011;5685;52.384;13.420;2022-08-27T16:33:56;16.27;;;14.87;;
11255;SDS011;5685;52.384;13.420;2022-08-27T16:36:59;15.47;;;14.07;;
11255;SDS011;5685;52.384;13.420;2022-08-27T16:40:02;15.47;;;14.37;;
11255;SDS011;5685;52.384;13.420;2022-08-27T16:43:06;14.90;;;13.87;;
11255;SDS011;5685;52.384;13.420;2022-08-27T16:46:09;15.27;;;14.07;;
11255;SDS011;5685;52.384;13.420;2022-08-27T16:49:11;15.97;;;14.57;;
11255;SDS011;5685;52.384;13.420;2022-08-27T16:52:30;15.47;;;14.33;;
11255;SDS011;5685;52.384;13.420;2022-08-27T16:55:33;15.37;;;14.07;;
11255;SDS011;5685;52.384;13.420;2022-08-27T16:58:37;15.23;;;13.87;;
11255;SDS011;5685;52.384;13.420;2022-08-27T17:01:40;14.80;;;13.60;;
11255;SDS011;5685;52.384;13.420;2022-08-27T17:04:43;14.33;;;13.23;;
11255;SDS011;5685;52.384;13.420;2022-08-27T17:07:45;15.63;;;14.33;;
11255;SDS011;5685;52.384;13.420;2022-08-27T17:10:50;14.27;;;13.27;;
11255;SDS011;5685;52.384;13.420;2022-08-27T17:13:55;14.80;;;13.50;;
11255;SDS011;5685;52.384;13.420;2022-08-27T17:17:01;14.20;;;13.10;;
11255;SDS011;5685;52.384;13.420;2022-08-27T17:20:04;13.87;;;12.77;;
11255;SDS011;5685;52.384;13.420;2022-08-27T17:23:08;14.07;;;13.13;;
11255;SDS011;5685;52.384;13.420;2022-08-27T17:26:20;13.83;;;12.83;;
11255;SDS011;5685;52.384;13.420;2022-08-27T17:29:25;13.87;;;12.97;;
11255;SDS011;5685;52.384;13.420;2022-08-27T17:32:28;13.63;;;12.53;;
11255;SDS011;5685;52.384;13.420;2022-08-27T17:35:32;14.00;;;12.90;;
11255;SDS011;5685;52.384;13.420;2022-08-27T17:38:35;13.10;;;12.30;;
11255;SDS011;5685;52.384;13.420;2022-08-27T17:41:39;13.40;;;12.60;;
11255;SDS011;5685;52.384;13.420;2022-08-27T17:44:45;13.67;;;12.77;;
11255;SDS011;5685;52.384;13.420;2022-08-27T17:47:47;13.90;;;12.80;;
11255;SDS011;5685;52.384;13.420;2022-08-27T17:50:50;14.10;;;12.90;;
11255;SDS011;5685;52.384;13.420;2022-08-27T17:53:54;13.33;;;12.40;;
11255;SDS011;5685;52.384;13.420;2022-08-27T17:56:58;13.93;;;13.10;;
11255;SDS011;5685;52.384;13.420;2022-08-27T18:00:05;13.80;;;12.70;;
11255;SDS011;5685;52.384;13.420;2022-08-27T18:03:12;14.20;;;13.20;;
11255;SDS011;5685;52.384;13.420;2022-08-27T18:06:17;14.20;;;13.30;;
11255;SDS011;5685;52.384;13.420;2022-08-27T18:09:19;13.40;;;12.57;;
11255;SDS011;5685;52.384;13.420;2022-08-27T18:12:23;13.47;;;12.53;;
11255;SDS011;5685;52.384;13.420;2022-08-27T18:15:28;13.20;;;12.30;;